UGSB/BUS METAR and TAF weather

Enter ICAO airport designator
Station Type Date Time Source
UGSB METAR 2022/01/26 21:00 UTC NOAA

UGSB 262100Z 19008KT 160V230 9999 -RA SCT014 BKN021 05/03 Q1016 NOSIG


Station Type Date Time Source
UGSB Decoded METAR 2022/01/26 21:00 UTC NOAA

Station name not available
Jan 26, 2022 - 04:00 PM EST / 2022.01.26 2100 UTC
Wind: from the S (190 degrees) at 9 MPH (8 KT) (direction variable):0
Visibility: greater than 7 mile(s):0
Sky conditions: mostly cloudy
Weather: light rain
Temperature: 41 F (5 C)
Dew Point: 37 F (3 C)
Relative Humidity: 86%
Pressure (altimeter): 30.00 in. Hg (1016 hPa)
ob: UGSB 262100Z 19008KT 160V230 9999 -RA SCT014 BKN021 05/03 Q1016 NOSIG
cycle: 21

Station Type Date Time Source
UGSB TAF 2022/01/26 18:28 UTC NOAA

TAF UGSB 261700Z 2618/2718 20013KT 9999 -RA SCT015 BKN025 TX06/2618Z TN03/2702Z
TEMPO 2618/2706 14015KT 5000 SHRA SCT010 BKN017CB
TEMPO
TEMPO 2706/2718 22022KT 4000 SHRA SCT009 BKN017CB

Example: see airport list